createdAt,value
2023-02-24T00:00:32.298Z,96056.13
2023-02-24T00:03:29.341Z,96047.41
2023-02-24T00:06:36.010Z,96034.78
2023-02-24T00:09:33.406Z,96041.31
2023-02-24T00:12:30.472Z,96037.06
2023-02-24T00:15:27.366Z,96038.44
2023-02-24T00:18:24.205Z,96021.84
2023-02-24T00:21:21.426Z,96029.69
2023-02-24T00:24:18.945Z,96025.28
2023-02-24T00:27:15.762Z,96026.09
2023-02-24T00:30:13.192Z,96020.63
2023-02-24T00:33:12.404Z,96024.53
2023-02-24T00:36:24.652Z,96028.88
2023-02-24T00:39:30.204Z,96024.53
2023-02-24T00:42:27.152Z,96014.88
2023-02-24T00:45:25.066Z,96014.31
2023-02-24T00:48:22.363Z,96016.75
2023-02-24T00:51:23.356Z,96005.25
2023-02-24T00:54:20.891Z,96010.38
2023-02-24T00:57:18.639Z,96017.97
2023-02-24T01:00:16.691Z,96002.81
2023-02-24T01:03:13.587Z,96005.41
2023-02-24T01:06:13.063Z,95990.47
2023-02-24T01:09:15.122Z,95989.09
2023-02-24T01:12:31.962Z,95986.06
2023-02-24T01:15:28.794Z,95975.84
2023-02-24T01:18:25.628Z,95973.50
2023-02-24T01:21:22.635Z,95963.00
2023-02-24T01:24:19.604Z,95959.91
2023-02-24T01:27:19.375Z,95956.53
2023-02-24T01:30:18.152Z,95956.38
2023-02-24T01:33:15.137Z,95949.19
2023-02-24T01:36:17.000Z,95938.75
2023-02-24T01:39:14.429Z,95943.53
2023-02-24T01:42:19.887Z,95935.91
2023-02-24T01:45:28.635Z,95928.34
2023-02-24T01:48:27.558Z,95926.91
2023-02-24T01:51:28.973Z,95923.81
2023-02-24T01:54:30.299Z,95918.78
2023-02-24T01:57:33.364Z,95913.91
2023-02-24T02:00:36.962Z,95918.25
2023-02-24T02:03:40.239Z,95924.13
2023-02-24T02:06:39.633Z,95908.69
2023-02-24T02:09:38.432Z,95910.94
2023-02-24T02:12:44.368Z,95906.47
2023-02-24T02:15:56.777Z,95895.78
2023-02-24T02:19:45.586Z,95896.59
2023-02-24T02:23:38.641Z,95892.06
2023-02-24T02:27:21.296Z,95880.75
2023-02-24T02:30:43.799Z,95879.34
2023-02-24T02:34:25.222Z,95882.28
2023-02-24T02:37:35.600Z,95872.56
2023-02-24T02:41:09.422Z,95870.69
2023-02-24T02:44:19.160Z,95871.50
2023-02-24T02:47:36.045Z,95862.78
2023-02-24T02:50:54.945Z,95865.91
2023-02-24T02:54:18.899Z,95858.44
2023-02-24T02:57:29.610Z,95874.31
2023-02-24T03:00:35.244Z,95862.38
2023-02-24T03:03:37.237Z,95854.28
2023-02-24T03:06:42.540Z,95853.06
2023-02-24T03:09:45.028Z,95860.38
2023-02-24T03:12:42.740Z,95861.59
2023-02-24T03:15:44.866Z,95860.63
2023-02-24T03:18:50.993Z,95861.22
2023-02-24T03:22:01.837Z,95856.06
2023-02-24T03:24:58.960Z,95860.22
2023-02-24T03:28:03.823Z,95853.75
2023-02-24T03:31:22.582Z,95846.16
2023-02-24T03:34:49.068Z,95851.16
2023-02-24T03:37:49.889Z,95849.72
2023-02-24T03:40:47.098Z,95849.94
2023-02-24T03:43:47.165Z,95849.38
2023-02-24T03:46:44.330Z,95847.91
2023-02-24T03:49:43.685Z,95836.72
2023-02-24T03:53:35.718Z,95835.19
2023-02-24T03:57:08.348Z,95824.47
2023-02-24T04:00:34.114Z,95826.22
2023-02-24T04:04:27.373Z,95823.38
2023-02-24T04:07:52.777Z,95832.63
2023-02-24T04:11:05.225Z,95827.44
2023-02-24T04:14:15.398Z,95829.19
2023-02-24T04:17:38.207Z,95827.25
2023-02-24T04:20:36.387Z,95828.81
2023-02-24T04:23:43.399Z,95823.63
2023-02-24T04:26:43.143Z,95814.41
2023-02-24T04:29:51.991Z,95818.34
2023-02-24T04:32:49.661Z,95817.84
2023-02-24T04:35:50.460Z,95808.31
2023-02-24T04:38:48.136Z,95801.44
2023-02-24T04:41:49.438Z,95792.75
2023-02-24T04:44:46.858Z,95791.47
2023-02-24T04:47:56.077Z,95770.72
2023-02-24T04:50:55.198Z,95760.66
2023-02-24T04:53:55.377Z,95766.09
2023-02-24T04:56:52.871Z,95772.06
2023-02-24T04:59:49.695Z,95764.47
2023-02-24T05:02:50.898Z,95778.72
2023-02-24T05:05:56.760Z,95766.63
2023-02-24T05:08:53.580Z,95758.00
2023-02-24T05:11:52.479Z,95759.00
2023-02-24T05:14:49.368Z,95757.41
2023-02-24T05:17:46.285Z,95754.13
2023-02-24T05:21:09.639Z,95755.03
2023-02-24T05:24:07.308Z,95754.28
2023-02-24T05:27:04.277Z,95753.56
2023-02-24T05:30:01.124Z,95748.00
2023-02-24T05:32:58.555Z,95741.09
2023-02-24T05:35:56.275Z,95736.91
2023-02-24T05:38:58.142Z,95724.59
2023-02-24T05:41:57.290Z,95735.78
2023-02-24T05:44:54.390Z,95728.44
2023-02-24T05:47:54.294Z,95721.91
2023-02-24T05:50:55.127Z,95724.47
2023-02-24T05:53:55.865Z,95718.09
2023-02-24T05:56:52.648Z,95719.50
2023-02-24T05:59:50.961Z,95716.94
2023-02-24T06:02:49.767Z,95719.41
2023-02-24T06:05:53.865Z,95726.47
2023-02-24T06:08:50.697Z,95724.59
2023-02-24T06:11:47.622Z,95724.75
2023-02-24T06:14:45.153Z,95715.66
2023-02-24T06:17:42.046Z,95722.09
2023-02-24T06:20:39.218Z,95723.41
2023-02-24T06:23:36.088Z,95719.44
2023-02-24T06:26:36.793Z,95714.50
2023-02-24T06:29:33.523Z,95712.69
2023-02-24T06:32:30.420Z,95714.03
2023-02-24T06:35:27.630Z,95719.84
2023-02-24T06:38:25.975Z,95712.28
2023-02-24T06:41:23.098Z,95705.03
2023-02-24T06:44:20.047Z,95704.19
2023-02-24T06:47:17.982Z,95716.59
2023-02-24T06:50:20.148Z,95713.03
2023-02-24T06:53:18.603Z,95707.34
2023-02-24T06:56:20.602Z,95709.16
2023-02-24T06:59:21.899Z,95697.88
2023-02-24T07:02:19.937Z,95699.72
2023-02-24T07:05:17.136Z,95691.53
2023-02-24T07:08:14.659Z,95687.44
2023-02-24T07:11:11.675Z,95689.53
2023-02-24T07:14:11.295Z,95674.88
2023-02-24T07:17:08.887Z,95679.16
2023-02-24T07:20:25.101Z,95680.31
2023-02-24T07:23:22.020Z,95677.78
2023-02-24T07:26:23.109Z,95677.28
2023-02-24T07:29:20.281Z,95679.25
2023-02-24T07:32:18.058Z,95668.22
2023-02-24T07:35:15.036Z,95666.19
2023-02-24T07:38:17.099Z,95663.66
2023-02-24T07:41:19.631Z,95656.72
2023-02-24T07:44:18.919Z,95659.72
2023-02-24T07:47:17.674Z,95659.13
2023-02-24T07:50:18.547Z,95654.19
2023-02-24T07:53:16.546Z,95644.97
2023-02-24T07:56:17.512Z,95640.00
2023-02-24T07:59:19.689Z,95636.03
2023-02-24T08:02:16.845Z,95633.66
2023-02-24T08:05:13.902Z,95629.31
2023-02-24T08:08:10.888Z,95645.59
2023-02-24T08:11:10.476Z,95635.97
2023-02-24T08:14:13.817Z,95641.84
2023-02-24T08:17:12.622Z,95622.91
2023-02-24T08:20:13.259Z,95619.66
2023-02-24T08:23:10.889Z,95620.09
2023-02-24T08:26:12.609Z,95621.09
2023-02-24T08:29:09.601Z,95615.78
2023-02-24T08:32:09.435Z,95616.97
2023-02-24T08:35:15.577Z,95609.38
2023-02-24T08:38:19.220Z,95604.28
2023-02-24T08:41:20.898Z,95613.34
2023-02-24T08:44:20.388Z,95596.91
2023-02-24T08:47:21.128Z,95597.13
2023-02-24T08:50:18.023Z,95583.75
2023-02-24T08:53:19.230Z,95586.19
2023-02-24T08:56:24.103Z,95583.25
2023-02-24T08:59:29.275Z,95573.72
2023-02-24T09:02:29.571Z,95581.59
2023-02-24T09:05:26.471Z,95566.63
2023-02-24T09:08:24.136Z,95558.97
2023-02-24T09:11:22.818Z,95551.34
2023-02-24T09:14:27.161Z,95547.63
2023-02-24T09:17:57.096Z,95550.56
2023-02-24T09:20:56.510Z,95541.63
2023-02-24T09:23:53.358Z,95531.94
2023-02-24T09:26:50.184Z,95524.53
2023-02-24T09:29:49.539Z,95524.69
2023-02-24T09:32:47.857Z,95524.31
2023-02-24T09:36:13.078Z,95535.25
2023-02-24T09:39:10.070Z,95533.47
2023-02-24T09:42:13.121Z,95552.16
2023-02-24T09:45:33.386Z,95543.59
2023-02-24T09:48:54.817Z,95551.50
2023-02-24T09:52:00.483Z,95539.75
2023-02-24T09:55:19.075Z,95531.91
2023-02-24T09:58:44.097Z,95533.41
2023-02-24T10:02:02.306Z,95530.72
2023-02-24T10:05:39.076Z,95529.69
2023-02-24T10:08:43.892Z,95513.00
2023-02-24T10:11:53.641Z,95514.28
2023-02-24T10:15:32.208Z,95511.97
2023-02-24T10:18:33.788Z,95502.22
2023-02-24T10:22:02.625Z,95486.94
2023-02-24T10:25:36.212Z,95488.56
2023-02-24T10:29:22.686Z,95481.16
2023-02-24T10:32:33.894Z,95473.41
2023-02-24T10:35:34.086Z,95464.31
2023-02-24T10:38:34.009Z,95462.03
2023-02-24T10:41:45.713Z,95457.91
2023-02-24T10:45:01.272Z,95449.72
2023-02-24T10:47:59.849Z,95451.56
2023-02-24T10:51:08.399Z,95443.50
2023-02-24T10:54:34.557Z,95430.63
2023-02-24T10:57:42.647Z,95420.25
2023-02-24T11:01:11.842Z,95400.56
2023-02-24T11:04:33.112Z,95376.41
2023-02-24T11:07:45.188Z,95376.34
2023-02-24T11:10:53.376Z,95381.47
2023-02-24T11:14:13.728Z,95370.09
2023-02-24T11:17:28.800Z,95365.53
2023-02-24T11:20:48.870Z,95349.97
2023-02-24T11:23:51.899Z,95342.47
2023-02-24T11:26:49.466Z,95333.31
2023-02-24T11:30:27.003Z,95321.72
2023-02-24T11:33:42.551Z,95326.78
2023-02-24T11:37:28.977Z,95309.75
2023-02-24T11:40:31.032Z,95303.81
2023-02-24T11:43:31.526Z,95298.56
2023-02-24T11:46:45.787Z,95292.38
2023-02-24T11:50:10.655Z,95283.44
2023-02-24T11:53:46.250Z,95275.91
2023-02-24T11:56:58.212Z,95257.75
2023-02-24T12:00:22.670Z,95253.19
2023-02-24T12:03:54.502Z,95240.38
2023-02-24T12:07:13.086Z,95244.16
2023-02-24T12:10:17.113Z,95231.38
2023-02-24T12:13:51.150Z,95227.69
2023-02-24T12:17:00.120Z,95217.16
2023-02-24T12:20:27.641Z,95222.34
2023-02-24T12:23:48.389Z,95215.78
2023-02-24T12:27:57.683Z,95220.63
2023-02-24T12:31:20.012Z,95229.56
2023-02-24T12:34:43.658Z,95208.25
2023-02-24T12:38:14.628Z,95205.75
2023-02-24T12:41:37.415Z,95208.56
2023-02-24T12:45:03.055Z,95204.66
2023-02-24T12:48:27.454Z,95197.59
2023-02-24T12:51:46.626Z,95196.03
2023-02-24T12:55:01.715Z,95188.06
2023-02-24T12:58:19.483Z,95179.91
2023-02-24T13:01:51.444Z,95173.19
2023-02-24T13:05:19.491Z,95170.53
2023-02-24T13:08:51.406Z,95165.53
2023-02-24T13:12:34.072Z,95158.47
2023-02-24T13:15:33.762Z,95159.09
2023-02-24T13:18:35.232Z,95159.88
2023-02-24T13:21:33.444Z,95153.59
2023-02-24T13:24:30.742Z,95146.13
2023-02-24T13:27:36.221Z,95143.75
2023-02-24T13:30:43.867Z,95132.03
2023-02-24T13:33:43.885Z,95137.19
2023-02-24T13:36:48.830Z,95132.81
2023-02-24T13:39:45.763Z,95128.41
2023-02-24T13:42:58.436Z,95125.31
2023-02-24T13:46:02.290Z,95116.53
2023-02-24T13:49:18.286Z,95119.81
2023-02-24T13:52:49.081Z,95112.31
2023-02-24T13:56:34.188Z,95109.19
2023-02-24T13:59:54.471Z,95119.81
2023-02-24T14:02:53.360Z,95110.38
2023-02-24T14:05:51.630Z,95115.13
2023-02-24T14:08:55.903Z,95122.00
2023-02-24T14:12:18.226Z,95109.56
2023-02-24T14:15:27.007Z,95105.06
2023-02-24T14:18:28.254Z,95097.22
2023-02-24T14:21:28.640Z,95089.13
2023-02-24T14:24:28.238Z,95083.50
2023-02-24T14:27:26.907Z,95086.63
2023-02-24T14:30:33.933Z,95088.38
2023-02-24T14:33:36.190Z,95080.84
2023-02-24T14:36:42.222Z,95078.66
2023-02-24T14:39:39.051Z,95076.94
2023-02-24T14:42:36.274Z,95077.09
2023-02-24T14:45:33.146Z,95080.34
2023-02-24T14:48:31.853Z,95081.28
2023-02-24T14:51:35.613Z,95073.66
2023-02-24T14:55:07.852Z,95070.91
2023-02-24T14:58:21.796Z,95071.59
2023-02-24T15:01:39.907Z,95062.50
2023-02-24T15:04:43.686Z,95073.44
2023-02-24T15:07:45.624Z,95065.34
2023-02-24T15:10:47.238Z,95058.44
2023-02-24T15:14:08.281Z,95071.19
2023-02-24T15:17:16.277Z,95053.31
2023-02-24T15:20:38.314Z,95063.50
2023-02-24T15:23:38.248Z,95063.44
2023-02-24T15:26:35.474Z,95070.00
2023-02-24T15:29:32.486Z,95068.19
2023-02-24T15:32:33.009Z,95061.53
2023-02-24T15:35:33.178Z,95077.50
2023-02-24T15:38:36.809Z,95072.75
2023-02-24T15:41:46.925Z,95076.41
2023-02-24T15:44:53.760Z,95087.69
2023-02-24T15:47:59.206Z,95089.00
2023-02-24T15:51:05.188Z,95093.44
2023-02-24T15:54:10.271Z,95096.16
2023-02-24T15:57:07.110Z,95095.16
2023-02-24T16:00:15.118Z,95095.41
2023-02-24T16:03:12.742Z,95096.16
2023-02-24T16:06:20.168Z,95095.66
2023-02-24T16:09:19.641Z,95097.50
2023-02-24T16:12:43.818Z,95081.78
2023-02-24T16:15:43.086Z,95093.63
2023-02-24T16:18:40.047Z,95093.81
2023-02-24T16:21:36.907Z,95095.19
2023-02-24T16:24:33.804Z,95087.03
2023-02-24T16:27:31.321Z,95084.88
2023-02-24T16:30:30.566Z,95090.88
2023-02-24T16:33:28.515Z,95080.63
2023-02-24T16:36:27.890Z,95088.03
2023-02-24T16:39:25.006Z,95080.91
2023-02-24T16:42:22.269Z,95080.13
2023-02-24T16:45:21.027Z,95082.75
2023-02-24T16:48:25.134Z,95075.88
2023-02-24T16:51:22.452Z,95062.78
2023-02-24T16:54:22.097Z,95079.84
2023-02-24T16:57:18.949Z,95066.00
2023-02-24T17:00:17.912Z,95059.00
2023-02-24T17:03:28.556Z,95062.19
2023-02-24T17:06:26.043Z,95055.06
2023-02-24T17:09:23.264Z,95061.00
2023-02-24T17:12:22.114Z,95045.25
2023-02-24T17:15:22.750Z,95055.63
2023-02-24T17:18:21.450Z,95056.25
2023-02-24T17:21:18.679Z,95051.13
2023-02-24T17:24:20.329Z,95052.00
2023-02-24T17:27:17.233Z,95055.56
2023-02-24T17:30:20.920Z,95055.47
2023-02-24T17:33:18.040Z,95055.47
2023-02-24T17:36:15.102Z,95037.44
2023-02-24T17:39:13.153Z,95043.78
2023-02-24T17:42:09.961Z,95051.22
2023-02-24T17:45:07.948Z,95057.78
2023-02-24T17:48:04.896Z,95049.56
2023-02-24T17:51:01.731Z,95051.13
2023-02-24T17:53:58.824Z,95043.25
2023-02-24T17:56:56.300Z,95039.59
2023-02-24T17:59:53.631Z,95026.72
2023-02-24T18:02:50.564Z,95030.06
2023-02-24T18:05:47.435Z,95030.75
2023-02-24T18:08:44.291Z,95029.56
2023-02-24T18:11:41.198Z,95022.88
2023-02-24T18:14:38.077Z,95024.88
2023-02-24T18:17:35.707Z,95021.25
2023-02-24T18:20:33.136Z,95018.19
2023-02-24T18:23:30.227Z,95008.41
2023-02-24T18:26:27.368Z,95010.41
2023-02-24T18:29:24.348Z,95001.75
2023-02-24T18:32:21.823Z,95003.47
2023-02-24T18:35:21.905Z,95000.00
2023-02-24T18:38:18.963Z,94990.47
2023-02-24T18:41:23.409Z,94986.38
2023-02-24T18:44:23.748Z,94990.91
2023-02-24T18:47:20.736Z,94980.75
2023-02-24T18:50:18.459Z,94988.84
2023-02-24T18:53:16.430Z,94987.50
2023-02-24T18:56:21.759Z,94992.28
2023-02-24T18:59:18.914Z,94982.06
2023-02-24T19:02:15.909Z,94986.56
2023-02-24T19:05:12.850Z,94978.50
2023-02-24T19:08:09.835Z,94983.44
2023-02-24T19:11:09.795Z,94989.50
2023-02-24T19:14:06.913Z,94986.50
2023-02-24T19:17:03.938Z,94994.63
2023-02-24T19:20:00.759Z,94987.91
2023-02-24T19:22:57.720Z,94989.53
2023-02-24T19:25:54.649Z,94984.88
2023-02-24T19:28:52.890Z,94983.19
2023-02-24T19:31:54.536Z,94987.13
2023-02-24T19:34:51.480Z,94990.41
2023-02-24T19:37:49.017Z,94987.34
2023-02-24T19:40:45.885Z,94988.91
2023-02-24T19:43:42.751Z,94987.47
2023-02-24T19:46:39.848Z,94987.28
2023-02-24T19:49:36.799Z,94995.94
2023-02-24T19:52:33.708Z,94985.91
2023-02-24T19:55:30.588Z,94989.13
2023-02-24T19:58:27.481Z,94981.00
2023-02-24T20:01:26.606Z,94969.75
2023-02-24T20:04:24.034Z,94972.50
2023-02-24T20:07:22.962Z,94967.81
2023-02-24T20:10:20.299Z,94963.56
2023-02-24T20:13:17.125Z,94954.69
2023-02-24T20:16:17.756Z,94956.84
2023-02-24T20:19:15.503Z,94948.72
2023-02-24T20:22:12.378Z,94947.63
2023-02-24T20:25:09.741Z,94948.22
2023-02-24T20:28:06.587Z,94948.94
2023-02-24T20:31:10.776Z,94948.97
2023-02-24T20:34:10.520Z,94943.22
2023-02-24T20:37:07.419Z,94944.34
2023-02-24T20:40:05.234Z,94941.66
2023-02-24T20:43:05.720Z,94949.72
2023-02-24T20:46:28.884Z,94948.06
2023-02-24T20:49:26.940Z,94944.34
2023-02-24T20:52:23.883Z,94946.66
2023-02-24T20:55:22.173Z,94942.22
2023-02-24T20:58:19.018Z,94936.53
2023-02-24T21:01:17.665Z,94940.66
2023-02-24T21:04:17.078Z,94942.44
2023-02-24T21:07:14.718Z,94936.38
2023-02-24T21:10:12.321Z,94932.69
2023-02-24T21:13:09.184Z,94927.16
2023-02-24T21:16:07.646Z,94928.09
2023-02-24T21:19:04.587Z,94924.31
2023-02-24T21:22:01.430Z,94916.38
2023-02-24T21:24:59.225Z,94921.16
2023-02-24T21:27:56.073Z,94917.22
2023-02-24T21:30:53.477Z,94911.97
2023-02-24T21:33:54.384Z,94918.34
2023-02-24T21:36:51.208Z,94911.00
2023-02-24T21:39:49.110Z,94917.50
2023-02-24T21:42:47.572Z,94917.06
2023-02-24T21:45:45.491Z,94909.09
2023-02-24T21:48:43.118Z,94909.97
2023-02-24T21:51:42.024Z,94914.97
2023-02-24T21:54:39.062Z,94909.13
2023-02-24T21:57:53.855Z,94913.72
2023-02-24T22:00:50.979Z,94912.06
2023-02-24T22:03:47.821Z,94921.09
2023-02-24T22:06:45.677Z,94905.91
2023-02-24T22:09:42.605Z,94911.19
2023-02-24T22:12:39.977Z,94914.34
2023-02-24T22:15:39.221Z,94918.69
2023-02-24T22:18:36.415Z,94907.00
2023-02-24T22:21:33.967Z,94901.97
2023-02-24T22:24:31.654Z,94910.25
2023-02-24T22:27:31.611Z,94915.03
2023-02-24T22:30:28.580Z,94916.91
2023-02-24T22:33:25.587Z,94914.53
2023-02-24T22:36:26.738Z,94924.13
2023-02-24T22:39:23.657Z,94908.06
2023-02-24T22:42:20.482Z,94921.53
2023-02-24T22:45:17.364Z,94922.31
2023-02-24T22:48:14.536Z,94912.03
2023-02-24T22:51:13.985Z,94913.56
2023-02-24T22:54:10.890Z,94923.69
2023-02-24T22:57:07.742Z,94922.53
2023-02-24T23:00:09.632Z,94930.00
2023-02-24T23:03:06.561Z,94924.59
2023-02-24T23:06:12.579Z,94930.03
2023-02-24T23:09:10.011Z,94931.25
2023-02-24T23:12:07.218Z,94930.03
2023-02-24T23:15:04.686Z,94928.94
2023-02-24T23:18:02.538Z,94926.16
2023-02-24T23:21:03.252Z,94922.09
2023-02-24T23:24:00.247Z,94937.44
2023-02-24T23:26:57.961Z,94926.38
2023-02-24T23:29:54.805Z,94927.00
2023-02-24T23:32:51.810Z,94925.50
2023-02-24T23:35:49.356Z,94945.38
2023-02-24T23:38:46.326Z,94938.00
2023-02-24T23:41:44.061Z,94947.91
2023-02-24T23:44:40.922Z,94959.34
2023-02-24T23:47:37.852Z,94966.88
2023-02-24T23:50:38.241Z,94969.47
2023-02-24T23:53:43.378Z,94975.94
2023-02-24T23:56:41.077Z,94972.38
2023-02-24T23:59:39.352Z,94971.88
